createdAt,value
2018-02-07T00:00:21.958Z,0
2018-02-07T00:01:36.640Z,0
2018-02-07T00:02:51.301Z,0
2018-02-07T00:04:05.541Z,0
2018-02-07T00:05:19.964Z,0
2018-02-07T00:06:34.093Z,0
2018-02-07T00:07:48.451Z,0
2018-02-07T00:09:04.038Z,0
2018-02-07T00:10:18.678Z,0
2018-02-07T00:11:33.293Z,0
2018-02-07T00:12:48.473Z,0
2018-02-07T00:14:03.469Z,0
2018-02-07T00:15:18.966Z,0
2018-02-07T00:16:33.914Z,0
2018-02-07T00:17:49.100Z,0
2018-02-07T00:19:04.013Z,0
2018-02-07T00:20:19.036Z,0
2018-02-07T00:21:33.948Z,0
2018-02-07T00:22:48.549Z,0
2018-02-07T00:24:18.759Z,0
2018-02-07T00:25:33.398Z,0
2018-02-07T00:26:48.282Z,0
2018-02-07T00:28:02.347Z,0
2018-02-07T00:29:17.020Z,0
2018-02-07T00:30:31.994Z,0
2018-02-07T00:31:46.654Z,0
2018-02-07T00:33:01.054Z,0
2018-02-07T00:34:16.023Z,0
2018-02-07T00:35:30.978Z,0
2018-02-07T00:36:45.694Z,0
2018-02-07T00:38:00.910Z,0
2018-02-07T00:39:15.928Z,0
2018-02-07T00:40:30.982Z,0
2018-02-07T00:41:45.720Z,0
2018-02-07T00:43:00.845Z,0
2018-02-07T00:44:15.188Z,0
2018-02-07T00:45:29.350Z,0
2018-02-07T00:46:43.971Z,0
2018-02-07T00:47:58.189Z,0
2018-02-07T00:49:14.034Z,0
2018-02-07T00:50:28.941Z,0
2018-02-07T00:51:43.292Z,0
2018-02-07T00:52:58.081Z,0
2018-02-07T00:54:11.945Z,0
2018-02-07T00:55:26.985Z,0
2018-02-07T00:56:41.916Z,0
2018-02-07T00:57:57.618Z,0
2018-02-07T00:59:12.553Z,0
2018-02-07T01:00:27.699Z,0
2018-02-07T01:01:42.408Z,0
2018-02-07T01:02:56.985Z,0
2018-02-07T01:04:11.456Z,0
2018-02-07T01:05:26.097Z,0
2018-02-07T01:06:40.211Z,0
2018-02-07T01:07:55.343Z,0
2018-02-07T01:09:09.782Z,0
2018-02-07T01:10:24.976Z,0
2018-02-07T01:11:39.681Z,0
2018-02-07T01:12:55.144Z,0
2018-02-07T01:14:10.421Z,0
2018-02-07T01:15:25.630Z,0
2018-02-07T01:16:40.282Z,0
2018-02-07T01:17:55.200Z,0
2018-02-07T01:19:09.809Z,0
2018-02-07T01:20:24.767Z,0
2018-02-07T01:21:39.582Z,0
2018-02-07T01:22:54.239Z,0
2018-02-07T01:24:08.595Z,0
2018-02-07T01:25:36.032Z,0
2018-02-07T01:26:54.352Z,0
2018-02-07T01:28:08.977Z,0
2018-02-07T01:29:23.667Z,0
2018-02-07T01:30:38.539Z,0
2018-02-07T01:31:53.474Z,0
2018-02-07T01:33:08.645Z,0
2018-02-07T01:34:23.187Z,0
2018-02-07T01:35:37.783Z,0
2018-02-07T01:36:52.663Z,0
2018-02-07T01:38:07.597Z,0
2018-02-07T01:39:22.558Z,0
2018-02-07T01:40:37.143Z,0
2018-02-07T01:41:52.074Z,0
2018-02-07T01:43:06.641Z,0
2018-02-07T01:44:21.371Z,0
2018-02-07T01:45:36.772Z,0
2018-02-07T01:46:52.199Z,0
2018-02-07T01:48:07.293Z,0
2018-02-07T01:49:22.570Z,0
2018-02-07T01:50:37.163Z,0
2018-02-07T01:51:52.013Z,0
2018-02-07T01:53:06.582Z,0
2018-02-07T01:54:21.907Z,0
2018-02-07T01:55:37.059Z,0
2018-02-07T01:56:52.221Z,0
2018-02-07T01:58:07.395Z,0
2018-02-07T01:59:22.300Z,0
2018-02-07T02:00:37.156Z,0
2018-02-07T02:01:52.546Z,0
2018-02-07T02:03:07.230Z,0
2018-02-07T02:04:23.088Z,0
2018-02-07T02:05:37.956Z,0
2018-02-07T02:06:52.845Z,0
2018-02-07T02:08:07.475Z,0
2018-02-07T02:09:22.360Z,0
2018-02-07T02:10:37.815Z,0
2018-02-07T02:11:52.433Z,0
2018-02-07T02:13:07.004Z,0
2018-02-07T02:14:21.582Z,0
2018-02-07T02:15:36.103Z,0
2018-02-07T02:16:51.530Z,0
2018-02-07T02:18:06.411Z,0
2018-02-07T02:19:21.301Z,0
2018-02-07T02:20:36.608Z,0
2018-02-07T02:21:51.958Z,0
2018-02-07T02:23:07.098Z,0
2018-02-07T02:24:21.945Z,0
2018-02-07T02:25:36.236Z,0
2018-02-07T02:26:50.788Z,0
2018-02-07T02:28:05.413Z,0
2018-02-07T02:29:20.625Z,0
2018-02-07T02:30:35.003Z,0
2018-02-07T02:31:49.293Z,0
2018-02-07T02:33:04.424Z,0
2018-02-07T02:34:19.033Z,0
2018-02-07T02:35:33.859Z,0
2018-02-07T02:36:48.455Z,0
2018-02-07T02:38:02.757Z,0
2018-02-07T02:39:17.926Z,0
2018-02-07T02:40:33.397Z,0
2018-02-07T02:41:48.380Z,0
2018-02-07T02:43:03.280Z,0
2018-02-07T02:44:18.421Z,0
2018-02-07T02:45:33.692Z,0
2018-02-07T02:46:48.314Z,0
2018-02-07T02:48:03.528Z,0
2018-02-07T02:49:18.905Z,0
2018-02-07T02:50:33.072Z,0
2018-02-07T02:51:48.336Z,0
2018-02-07T02:53:02.684Z,0
2018-02-07T02:54:17.866Z,0
2018-02-07T02:55:32.602Z,0
2018-02-07T02:56:46.950Z,0
2018-02-07T02:58:02.348Z,0
2018-02-07T02:59:16.961Z,0
2018-02-07T03:00:32.147Z,0
2018-02-07T03:01:47.206Z,0
2018-02-07T03:03:02.148Z,0
2018-02-07T03:04:16.752Z,0
2018-02-07T03:05:31.110Z,0
2018-02-07T03:06:46.668Z,0
2018-02-07T03:08:01.516Z,0
2018-02-07T03:09:16.073Z,0
2018-02-07T03:10:30.364Z,0
2018-02-07T03:11:44.747Z,0
2018-02-07T03:12:59.890Z,0
2018-02-07T03:14:14.748Z,0
2018-02-07T03:15:29.965Z,0
2018-02-07T03:16:45.114Z,0
2018-02-07T03:17:59.666Z,0
2018-02-07T03:19:14.516Z,0
2018-02-07T03:20:29.362Z,0
2018-02-07T03:21:44.584Z,0
2018-02-07T03:22:59.742Z,0
2018-02-07T03:24:14.037Z,0
2018-02-07T03:25:28.661Z,0
2018-02-07T03:26:43.912Z,0
2018-02-07T03:27:58.486Z,0
2018-02-07T03:29:13.709Z,0
2018-02-07T03:30:29.132Z,0
2018-02-07T03:31:44.304Z,0
2018-02-07T03:32:58.854Z,0
2018-02-07T03:34:14.302Z,0
2018-02-07T03:35:29.381Z,0
2018-02-07T03:36:43.993Z,0
2018-02-07T03:37:59.692Z,0
2018-02-07T03:39:15.415Z,0
2018-02-07T03:40:29.963Z,0
2018-02-07T03:41:44.588Z,0
2018-02-07T03:42:59.696Z,0
2018-02-07T03:44:14.308Z,0
2018-02-07T03:45:29.454Z,0
2018-02-07T03:46:43.826Z,0
2018-02-07T03:47:58.706Z,0
2018-02-07T03:49:13.329Z,0
2018-02-07T03:50:28.812Z,0
2018-02-07T03:51:44.383Z,0
2018-02-07T03:52:59.526Z,0
2018-02-07T03:54:13.820Z,0
2018-02-07T03:55:28.991Z,0
2018-02-07T03:56:44.160Z,0
2018-02-07T03:57:59.154Z,0
2018-02-07T03:59:14.306Z,0
2018-02-07T04:00:29.195Z,0
2018-02-07T04:01:44.067Z,0
2018-02-07T04:02:59.839Z,0
2018-02-07T04:04:14.444Z,0
2018-02-07T04:05:29.070Z,0
2018-02-07T04:06:44.176Z,0
2018-02-07T04:07:58.587Z,0
2018-02-07T04:09:13.501Z,0
2018-02-07T04:10:28.366Z,0
2018-02-07T04:11:43.433Z,0
2018-02-07T04:12:58.799Z,0
2018-02-07T04:14:13.651Z,0
2018-02-07T04:15:28.830Z,0
2018-02-07T04:16:43.950Z,0
2018-02-07T04:17:58.602Z,0
2018-02-07T04:19:13.756Z,0
2018-02-07T04:20:28.095Z,0
2018-02-07T04:21:43.302Z,0
2018-02-07T04:22:57.893Z,0
2018-02-07T04:24:12.477Z,0
2018-02-07T04:25:26.776Z,0
2018-02-07T04:26:41.625Z,0
2018-02-07T04:27:56.316Z,0
2018-02-07T04:29:11.185Z,0
2018-02-07T04:30:26.612Z,0
2018-02-07T04:31:41.489Z,0
2018-02-07T04:32:56.702Z,0
2018-02-07T04:35:21.323Z,0
2018-02-07T04:36:36.230Z,0
2018-02-07T04:37:51.177Z,0
2018-02-07T04:39:05.577Z,0
2018-02-07T04:40:20.479Z,0
2018-02-07T04:41:35.403Z,0
2018-02-07T04:42:50.246Z,0
2018-02-07T04:44:05.837Z,0
2018-02-07T04:45:20.446Z,0
2018-02-07T04:46:35.628Z,0
2018-02-07T04:47:50.506Z,0
2018-02-07T04:49:05.397Z,0
2018-02-07T04:50:20.077Z,0
2018-02-07T04:51:34.935Z,0
2018-02-07T04:52:49.801Z,0
2018-02-07T04:54:05.190Z,0
2018-02-07T04:55:20.173Z,0
2018-02-07T04:56:34.752Z,0
2018-02-07T04:57:49.962Z,0
2018-02-07T04:59:04.543Z,0
2018-02-07T05:00:19.677Z,0
2018-02-07T05:01:34.305Z,0
2018-02-07T05:02:49.196Z,0
2018-02-07T05:04:04.340Z,0
2018-02-07T05:05:18.977Z,0
2018-02-07T05:06:33.347Z,0
2018-02-07T05:07:47.971Z,0
2018-02-07T05:09:03.357Z,0
2018-02-07T05:10:17.915Z,0
2018-02-07T05:11:32.546Z,0
2018-02-07T05:12:47.647Z,0
2018-02-07T05:14:02.854Z,0
2018-02-07T05:15:17.748Z,0
2018-02-07T05:16:32.472Z,0
2018-02-07T05:17:47.872Z,0
2018-02-07T05:19:02.718Z,0
2018-02-07T05:20:17.282Z,0
2018-02-07T05:21:32.170Z,0
2018-02-07T05:22:46.460Z,0
2018-02-07T05:24:01.482Z,0
2018-02-07T05:25:16.380Z,0
2018-02-07T05:26:31.494Z,0
2018-02-07T05:27:46.354Z,0
2018-02-07T05:29:01.584Z,0
2018-02-07T05:30:16.446Z,0
2018-02-07T05:31:31.343Z,0
2018-02-07T05:32:45.660Z,0
2018-02-07T05:34:00.688Z,0
2018-02-07T05:35:15.248Z,0
2018-02-07T05:36:30.094Z,0
2018-02-07T05:37:45.371Z,0
2018-02-07T05:39:00.550Z,0
2018-02-07T05:40:15.219Z,0
2018-02-07T05:41:30.108Z,0
2018-02-07T05:42:44.694Z,0
2018-02-07T05:43:59.559Z,0
2018-02-07T05:45:14.662Z,0
2018-02-07T05:46:28.958Z,0
2018-02-07T05:47:44.141Z,0
2018-02-07T05:48:58.938Z,0
2018-02-07T05:50:14.693Z,0
2018-02-07T05:51:29.363Z,0
2018-02-07T05:52:44.233Z,0
2018-02-07T05:53:58.560Z,0
2018-02-07T05:55:12.967Z,0
2018-02-07T05:56:28.138Z,0
2018-02-07T05:57:42.721Z,0
2018-02-07T05:59:23.551Z,0
2018-02-07T06:00:38.047Z,0
2018-02-07T06:01:52.963Z,0
2018-02-07T06:03:08.133Z,0
2018-02-07T06:04:22.196Z,0
2018-02-07T06:05:36.610Z,0
2018-02-07T06:06:50.916Z,0
2018-02-07T06:08:05.851Z,0
2018-02-07T06:09:19.962Z,0
2018-02-07T06:10:34.962Z,0
2018-02-07T06:11:50.157Z,0
2018-02-07T06:13:05.578Z,0
2018-02-07T06:14:20.722Z,0
2018-02-07T06:15:36.003Z,0
2018-02-07T06:16:51.490Z,0
2018-02-07T06:18:06.106Z,0
2018-02-07T06:19:20.467Z,0
2018-02-07T06:20:35.510Z,0
2018-02-07T06:21:50.046Z,0
2018-02-07T06:23:05.189Z,4
2018-02-07T06:24:20.424Z,0
2018-02-07T06:25:35.334Z,4
2018-02-07T06:26:50.554Z,4
2018-02-07T06:28:05.963Z,4
2018-02-07T06:29:20.346Z,4
2018-02-07T06:30:35.295Z,4
2018-02-07T06:31:49.651Z,8
2018-02-07T06:33:05.344Z,8
2018-02-07T06:34:19.918Z,12
2018-02-07T06:35:34.231Z,16
2018-02-07T06:36:49.665Z,20
2018-02-07T06:38:04.886Z,24
2018-02-07T06:39:19.797Z,28
2018-02-07T06:40:34.924Z,32
2018-02-07T06:41:49.845Z,36
2018-02-07T06:43:04.713Z,40
2018-02-07T06:44:19.362Z,48
2018-02-07T06:45:34.224Z,56
2018-02-07T06:46:48.512Z,60
2018-02-07T06:48:03.413Z,72
2018-02-07T06:49:18.889Z,80
2018-02-07T06:50:33.611Z,88
2018-02-07T06:51:49.092Z,100
2018-02-07T06:53:03.704Z,112
2018-02-07T06:54:18.954Z,120
2018-02-07T06:55:34.156Z,132
2018-02-07T06:56:49.083Z,144
2018-02-07T06:58:04.226Z,152
2018-02-07T06:59:18.615Z,164
2018-02-07T07:00:33.544Z,180
2018-02-07T07:01:48.944Z,196
2018-02-07T07:03:03.901Z,212
2018-02-07T07:04:18.823Z,228
2018-02-07T07:05:34.303Z,240
2018-02-07T07:06:48.809Z,256
2018-02-07T07:08:03.142Z,276
2018-02-07T07:09:18.025Z,296
2018-02-07T07:10:33.515Z,320
2018-02-07T07:11:48.245Z,340
2018-02-07T07:13:02.628Z,356
2018-02-07T07:14:18.155Z,376
2018-02-07T07:15:33.615Z,408
2018-02-07T07:16:48.969Z,440
2018-02-07T07:18:03.843Z,468
2018-02-07T07:19:18.474Z,500
2018-02-07T07:20:32.908Z,516
2018-02-07T07:21:47.079Z,532
2018-02-07T07:23:02.313Z,556
2018-02-07T07:24:17.643Z,580
2018-02-07T07:25:32.558Z,604
2018-02-07T07:26:47.499Z,632
2018-02-07T07:28:02.120Z,656
2018-02-07T07:29:17.311Z,680
2018-02-07T07:30:31.951Z,708
2018-02-07T07:31:47.044Z,720
2018-02-07T07:33:01.676Z,732
2018-02-07T07:35:52.142Z,804
2018-02-07T07:37:07.553Z,824
2018-02-07T07:38:22.161Z,852
2018-02-07T07:39:36.778Z,872
2018-02-07T07:40:51.420Z,884
2018-02-07T07:42:06.060Z,820
2018-02-07T07:43:21.042Z,880
2018-02-07T07:44:35.423Z,928
2018-02-07T07:45:50.680Z,952
2018-02-07T07:47:05.220Z,980
2018-02-07T07:48:20.126Z,1004
2018-02-07T07:49:35.090Z,1024
2018-02-07T07:50:49.694Z,1044
2018-02-07T07:52:04.508Z,1064
2018-02-07T07:53:19.166Z,1080
2018-02-07T07:54:33.461Z,1096
2018-02-07T07:55:48.388Z,1108
2018-02-07T07:57:02.967Z,1124
2018-02-07T07:58:17.951Z,1144
2018-02-07T07:59:33.429Z,1152
2018-02-07T08:00:48.402Z,1172
2018-02-07T08:02:03.850Z,1188
2018-02-07T08:03:18.475Z,1188
2018-02-07T08:04:33.233Z,1200
2018-02-07T08:05:47.855Z,1216
2018-02-07T08:07:03.072Z,1232
2018-02-07T08:08:18.701Z,1240
2018-02-07T08:09:33.291Z,1252
2018-02-07T08:10:47.419Z,1260
2018-02-07T08:12:01.896Z,1264
2018-02-07T08:13:16.899Z,1256
2018-02-07T08:14:31.560Z,1208
2018-02-07T08:15:46.518Z,1212
2018-02-07T08:17:01.615Z,1220
2018-02-07T08:18:16.224Z,1232
2018-02-07T08:19:31.257Z,1252
2018-02-07T08:20:46.702Z,1288
2018-02-07T08:22:01.532Z,1336
2018-02-07T08:23:15.975Z,1384
2018-02-07T08:24:30.999Z,1420
2018-02-07T08:25:45.629Z,1420
2018-02-07T08:27:06.913Z,1432
2018-02-07T08:28:53.554Z,1464
2018-02-07T08:30:07.940Z,1476
2018-02-07T08:31:22.967Z,1484
2018-02-07T08:32:38.309Z,1532
2018-02-07T08:33:52.723Z,1592
2018-02-07T08:35:07.088Z,1620
2018-02-07T08:36:21.442Z,1644
2018-02-07T08:37:36.536Z,1664
2018-02-07T08:38:51.209Z,1620
2018-02-07T08:40:05.827Z,1600
2018-02-07T08:41:21.332Z,1672
2018-02-07T08:42:36.444Z,1768
2018-02-07T08:43:51.654Z,1844
2018-02-07T08:45:06.568Z,1856
2018-02-07T08:46:20.628Z,1792
2018-02-07T08:47:35.520Z,1692
2018-02-07T08:48:50.187Z,1552
2018-02-07T08:50:04.555Z,1416
2018-02-07T08:51:19.838Z,1304
2018-02-07T08:52:34.884Z,1224
2018-02-07T08:53:49.231Z,1188
2018-02-07T08:55:03.315Z,1164
2018-02-07T08:56:18.827Z,1152
2018-02-07T08:57:33.363Z,1152
2018-02-07T08:58:48.319Z,1172
2018-02-07T09:00:02.991Z,1204
2018-02-07T09:01:17.674Z,1244
2018-02-07T09:02:32.622Z,1328
2018-02-07T09:03:47.142Z,1496
2018-02-07T09:05:18.306Z,1812
2018-02-07T09:06:32.173Z,2092
2018-02-07T09:07:46.625Z,2332
2018-02-07T09:09:01.344Z,2456
2018-02-07T09:10:16.267Z,2536
2018-02-07T09:11:35.240Z,2608
2018-02-07T09:12:50.576Z,2628
2018-02-07T09:14:04.923Z,2636
2018-02-07T09:15:19.918Z,2640
2018-02-07T09:16:35.127Z,2672
2018-02-07T09:17:51.017Z,2728
2018-02-07T09:19:05.710Z,2788
2018-02-07T09:20:20.985Z,2852
2018-02-07T09:21:36.249Z,2884
2018-02-07T09:22:51.309Z,2888
2018-02-07T09:24:06.587Z,2892
2018-02-07T09:25:21.524Z,2884
2018-02-07T09:26:36.145Z,2840
2018-02-07T09:27:50.598Z,2864
2018-02-07T09:29:04.991Z,2916
2018-02-07T09:30:20.499Z,3100
2018-02-07T09:31:35.320Z,3236
2018-02-07T09:32:50.499Z,3384
2018-02-07T09:34:04.824Z,3452
2018-02-07T09:35:19.247Z,3420
2018-02-07T09:36:34.733Z,3284
2018-02-07T09:37:49.790Z,3116
2018-02-07T09:39:04.697Z,3000
2018-02-07T09:40:19.419Z,2896
2018-02-07T09:41:34.034Z,2844
2018-02-07T09:42:48.647Z,2760
2018-02-07T09:44:03.844Z,2680
2018-02-07T09:45:18.903Z,2592
2018-02-07T09:46:34.209Z,2496
2018-02-07T09:47:49.448Z,2400
2018-02-07T09:49:04.970Z,2300
2018-02-07T09:50:19.637Z,2224
2018-02-07T09:51:33.419Z,2184
2018-02-07T09:52:48.468Z,2148
2018-02-07T09:54:03.639Z,2124
2018-02-07T09:55:18.290Z,2100
2018-02-07T09:56:33.469Z,2068
2018-02-07T09:57:47.595Z,2068
2018-02-07T09:59:02.889Z,2064
2018-02-07T10:00:17.209Z,2044
2018-02-07T10:01:32.152Z,2044
2018-02-07T10:02:47.702Z,2036
2018-02-07T10:04:02.806Z,2028
2018-02-07T10:05:17.776Z,2028
2018-02-07T10:06:32.716Z,2032
2018-02-07T10:07:47.384Z,2040
2018-02-07T10:09:02.138Z,2056
2018-02-07T10:10:17.053Z,2052
2018-02-07T10:11:31.697Z,2052
2018-02-07T10:13:32.591Z,2040
2018-02-07T10:14:48.036Z,2032
2018-02-07T10:16:02.648Z,2048
2018-02-07T10:17:17.757Z,2040
2018-02-07T10:18:33.070Z,2032
2018-02-07T10:19:48.450Z,2028
2018-02-07T10:21:03.649Z,2028
2018-02-07T10:22:19.075Z,2016
2018-02-07T10:23:34.179Z,2020
2018-02-07T10:24:49.441Z,2024
2018-02-07T10:26:03.868Z,2028
2018-02-07T10:27:18.284Z,2028
2018-02-07T10:28:33.091Z,2036
2018-02-07T10:29:48.096Z,2036
2018-02-07T10:31:02.495Z,2052
2018-02-07T10:32:17.688Z,2064
2018-02-07T10:33:32.366Z,2100
2018-02-07T10:34:47.237Z,2152
2018-02-07T10:36:01.623Z,2192
2018-02-07T10:37:16.367Z,2228
2018-02-07T10:38:32.014Z,2276
2018-02-07T10:39:46.374Z,2304
2018-02-07T10:41:00.781Z,2332
2018-02-07T10:42:15.701Z,2348
2018-02-07T10:43:30.759Z,2344
2018-02-07T10:44:46.411Z,2344
2018-02-07T10:47:11.116Z,2280
2018-02-07T10:48:25.831Z,2244
2018-02-07T10:49:40.351Z,2208
2018-02-07T10:50:56.098Z,2172
2018-02-07T10:52:11.031Z,2144
2018-02-07T10:53:25.748Z,2116
2018-02-07T10:54:40.857Z,2084
2018-02-07T10:55:55.230Z,2044
2018-02-07T10:57:09.899Z,2020
2018-02-07T10:58:25.003Z,2000
2018-02-07T10:59:39.235Z,1980
2018-02-07T11:00:54.485Z,1960
2018-02-07T11:02:09.491Z,1936
2018-02-07T11:03:24.776Z,1916
2018-02-07T11:04:39.821Z,1892
2018-02-07T11:05:54.352Z,1868
2018-02-07T11:07:09.434Z,1848
2018-02-07T11:08:24.725Z,1836
2018-02-07T11:09:40.428Z,1832
2018-02-07T11:10:55.654Z,1828
2018-02-07T11:12:10.367Z,1816
2018-02-07T11:13:24.779Z,1788
2018-02-07T11:14:40.172Z,1752
2018-02-07T11:15:55.470Z,1720
2018-02-07T11:17:10.701Z,1728
2018-02-07T11:18:25.965Z,1748
2018-02-07T11:19:41.037Z,1776
2018-02-07T11:20:56.325Z,1796
2018-02-07T11:22:11.830Z,1808
2018-02-07T11:23:26.484Z,1820
2018-02-07T11:24:40.924Z,1840
2018-02-07T11:25:55.577Z,1840
2018-02-07T11:27:10.571Z,1852
2018-02-07T11:28:25.755Z,1844
2018-02-07T11:29:40.536Z,1852
2018-02-07T11:30:56.140Z,1860
2018-02-07T11:32:11.438Z,1848
2018-02-07T11:33:26.210Z,1800
2018-02-07T11:34:41.586Z,1776
2018-02-07T11:35:56.905Z,1732
2018-02-07T11:37:11.282Z,1684
2018-02-07T11:38:26.505Z,1628
2018-02-07T11:39:41.590Z,1592
2018-02-07T11:40:56.937Z,1580
2018-02-07T11:42:11.902Z,1552
2018-02-07T11:43:26.523Z,1520
2018-02-07T11:44:40.866Z,1484
2018-02-07T11:45:55.182Z,1484
2018-02-07T11:47:10.112Z,1492
2018-02-07T11:48:24.891Z,1496
2018-02-07T11:49:39.092Z,1512
2018-02-07T11:50:53.727Z,1536
2018-02-07T11:52:08.986Z,1580
2018-02-07T11:53:24.218Z,1612
2018-02-07T11:54:38.553Z,1648
2018-02-07T11:55:53.163Z,1688
2018-02-07T11:57:07.781Z,1712
2018-02-07T11:58:22.994Z,1744
2018-02-07T11:59:37.692Z,1760
2018-02-07T12:00:52.871Z,1796
2018-02-07T12:02:07.798Z,1836
2018-02-07T12:03:22.507Z,1872
2018-02-07T12:04:36.873Z,1896
2018-02-07T12:05:52.485Z,1908
2018-02-07T12:07:07.737Z,1920
2018-02-07T12:08:22.885Z,1928
2018-02-07T12:09:37.256Z,1932
2018-02-07T12:10:51.890Z,1944
2018-02-07T12:12:06.964Z,1952
2018-02-07T12:13:21.644Z,1964
2018-02-07T12:14:36.663Z,1972
2018-02-07T12:15:51.352Z,1988
2018-02-07T12:17:06.303Z,2000
2018-02-07T12:18:21.581Z,2008
2018-02-07T12:19:36.257Z,2016
2018-02-07T12:20:51.610Z,2024
2018-02-07T12:22:26.118Z,2024
2018-02-07T12:23:40.750Z,2036
2018-02-07T12:25:08.701Z,2028
2018-02-07T12:26:23.211Z,2016
2018-02-07T12:27:37.934Z,2004
2018-02-07T12:28:52.428Z,2012
2018-02-07T12:30:07.040Z,2044
2018-02-07T12:31:22.043Z,2064
2018-02-07T12:32:37.065Z,2084
2018-02-07T12:33:51.558Z,2116
2018-02-07T12:35:06.258Z,2168
2018-02-07T12:36:20.254Z,2208
2018-02-07T12:37:34.363Z,2272
2018-02-07T12:38:48.726Z,2320
2018-02-07T12:40:03.163Z,2332
2018-02-07T12:41:18.594Z,2368
2018-02-07T12:42:33.038Z,2392
2018-02-07T12:43:47.671Z,2424
2018-02-07T12:45:01.498Z,2448
2018-02-07T12:46:16.154Z,2468
2018-02-07T12:47:31.763Z,2476
2018-02-07T12:48:46.741Z,2480
2018-02-07T12:50:01.701Z,2492
2018-02-07T12:51:16.446Z,2488
2018-02-07T12:52:31.180Z,2480
2018-02-07T12:53:46.057Z,2488
2018-02-07T12:55:00.774Z,2480
2018-02-07T12:56:16.394Z,2472
2018-02-07T12:57:31.748Z,2456
2018-02-07T12:58:46.490Z,2440
2018-02-07T13:00:02.326Z,2420
2018-02-07T13:01:16.689Z,2396
2018-02-07T13:02:31.351Z,2384
2018-02-07T13:03:46.572Z,2368
2018-02-07T13:05:00.980Z,2348
2018-02-07T13:06:16.029Z,2328
2018-02-07T13:07:31.219Z,2304
2018-02-07T13:08:46.769Z,2280
2018-02-07T13:10:01.719Z,2252
2018-02-07T13:11:17.070Z,2220
2018-02-07T13:12:32.352Z,2188
2018-02-07T13:13:47.053Z,2148
2018-02-07T13:15:02.066Z,2104
2018-02-07T13:16:16.805Z,2064
2018-02-07T13:17:31.920Z,2036
2018-02-07T13:18:46.956Z,2016
2018-02-07T13:20:02.050Z,2000
2018-02-07T13:21:16.865Z,1984
2018-02-07T13:22:31.980Z,1964
2018-02-07T13:23:46.366Z,1944
2018-02-07T13:25:01.691Z,1928
2018-02-07T13:26:17.460Z,1916
2018-02-07T13:27:32.659Z,1900
2018-02-07T13:28:47.114Z,1884
2018-02-07T13:30:01.780Z,1864
2018-02-07T13:31:16.820Z,1844
2018-02-07T13:32:31.920Z,1808
2018-02-07T13:33:46.313Z,1776
2018-02-07T13:35:01.871Z,1748
2018-02-07T13:36:16.319Z,1732
2018-02-07T13:37:31.463Z,1712
2018-02-07T13:38:46.776Z,1696
2018-02-07T13:40:01.709Z,1684
2018-02-07T13:41:17.242Z,1668
2018-02-07T13:42:32.238Z,1648
2018-02-07T13:43:47.211Z,1640
2018-02-07T13:45:02.769Z,1640
2018-02-07T13:46:17.039Z,1632
2018-02-07T13:47:31.665Z,1628
2018-02-07T13:48:46.581Z,1624
2018-02-07T13:50:02.179Z,1616
2018-02-07T13:51:16.910Z,1604
2018-02-07T13:52:31.912Z,1596
2018-02-07T13:53:46.733Z,1592
2018-02-07T13:55:01.896Z,1592
2018-02-07T13:56:16.957Z,1596
2018-02-07T13:57:31.783Z,1600
2018-02-07T13:58:47.249Z,1608
2018-02-07T14:00:02.205Z,1608
2018-02-07T14:01:17.448Z,1612
2018-02-07T14:02:32.940Z,1616
2018-02-07T14:03:47.639Z,1632
2018-02-07T14:05:02.051Z,1648
2018-02-07T14:06:17.046Z,1668
2018-02-07T14:07:32.375Z,1668
2018-02-07T14:08:47.679Z,1680
2018-02-07T14:10:02.731Z,1676
2018-02-07T14:11:17.499Z,1688
2018-02-07T14:12:32.505Z,1688
2018-02-07T14:13:47.875Z,1688
2018-02-07T14:15:02.346Z,1684
2018-02-07T14:16:16.835Z,1684
2018-02-07T14:17:31.929Z,1672
2018-02-07T14:18:46.585Z,1672
2018-02-07T14:20:01.580Z,1660
2018-02-07T14:21:16.089Z,1652
2018-02-07T14:22:31.744Z,1644
2018-02-07T14:23:46.541Z,1636
2018-02-07T14:25:01.252Z,1620
2018-02-07T14:26:16.330Z,1604
2018-02-07T14:27:30.790Z,1580
2018-02-07T14:28:46.426Z,1572
2018-02-07T14:30:01.173Z,1568
2018-02-07T14:31:16.090Z,1568
2018-02-07T14:32:30.312Z,1552
2018-02-07T14:33:44.977Z,1536
2018-02-07T14:34:59.941Z,1520
2018-02-07T14:36:14.574Z,1500
2018-02-07T14:37:29.846Z,1484
2018-02-07T14:38:44.396Z,1472
2018-02-07T14:39:59.953Z,1452
2018-02-07T14:41:15.212Z,1440
2018-02-07T14:42:30.002Z,1424
2018-02-07T14:43:44.817Z,1408
2018-02-07T14:44:59.774Z,1384
2018-02-07T14:46:14.589Z,1372
2018-02-07T14:47:29.567Z,1356
2018-02-07T14:48:44.997Z,1344
2018-02-07T14:49:59.631Z,1328
2018-02-07T14:51:14.423Z,1304
2018-02-07T14:52:30.058Z,1288
2018-02-07T14:53:44.641Z,1264
2018-02-07T14:54:59.045Z,1240
2018-02-07T14:56:14.522Z,1228
2018-02-07T14:57:29.283Z,1212
2018-02-07T14:58:44.545Z,1196
2018-02-07T14:59:59.272Z,1172
2018-02-07T15:01:14.591Z,1144
2018-02-07T15:02:29.897Z,1116
2018-02-07T15:03:45.437Z,1096
2018-02-07T15:05:00.651Z,1080
2018-02-07T15:06:15.986Z,1064
2018-02-07T15:07:30.658Z,1044
2018-02-07T15:09:15.365Z,1020
2018-02-07T15:10:30.478Z,1008
2018-02-07T15:11:45.747Z,996
2018-02-07T15:13:00.251Z,988
2018-02-07T15:14:15.644Z,976
2018-02-07T15:15:30.779Z,968
2018-02-07T15:16:45.781Z,964
2018-02-07T15:18:00.479Z,956
2018-02-07T15:19:15.784Z,952
2018-02-07T15:20:30.152Z,948
2018-02-07T15:21:44.984Z,952
2018-02-07T15:22:59.735Z,952
2018-02-07T15:24:14.055Z,944
2018-02-07T15:25:28.768Z,936
2018-02-07T15:26:44.048Z,920
2018-02-07T15:27:58.584Z,900
2018-02-07T15:29:14.200Z,884
2018-02-07T15:30:29.418Z,872
2018-02-07T15:31:44.453Z,856
2018-02-07T15:32:59.144Z,840
2018-02-07T15:34:14.174Z,824
2018-02-07T15:35:29.630Z,808
2018-02-07T15:36:44.167Z,792
2018-02-07T15:37:58.578Z,780
2018-02-07T15:39:13.578Z,764
2018-02-07T15:40:29.390Z,748
2018-02-07T15:41:44.362Z,732
2018-02-07T15:42:59.610Z,716
2018-02-07T15:44:15.170Z,700
2018-02-07T15:45:31.123Z,684
2018-02-07T15:46:45.798Z,664
2018-02-07T15:48:00.506Z,644
2018-02-07T15:49:15.429Z,632
2018-02-07T15:50:30.105Z,612
2018-02-07T15:51:44.743Z,596
2018-02-07T15:52:59.637Z,576
2018-02-07T15:54:14.979Z,552
2018-02-07T15:55:29.935Z,528
2018-02-07T15:56:44.398Z,504
2018-02-07T15:57:59.318Z,480
2018-02-07T15:59:14.613Z,452
2018-02-07T16:00:30.051Z,424
2018-02-07T16:01:44.813Z,404
2018-02-07T16:02:59.220Z,384
2018-02-07T16:04:13.881Z,360
2018-02-07T16:05:58.380Z,328
2018-02-07T16:07:13.187Z,312
2018-02-07T16:08:28.148Z,288
2018-02-07T16:09:43.500Z,272
2018-02-07T16:10:58.447Z,256
2018-02-07T16:12:13.799Z,236
2018-02-07T16:13:28.520Z,224
2018-02-07T16:14:43.719Z,204
2018-02-07T16:15:59.602Z,192
2018-02-07T16:17:14.560Z,176
2018-02-07T16:18:29.889Z,164
2018-02-07T16:19:44.329Z,148
2018-02-07T16:20:59.025Z,136
2018-02-07T16:22:13.982Z,128
2018-02-07T16:23:29.056Z,112
2018-02-07T16:24:44.273Z,100
2018-02-07T16:25:59.516Z,92
2018-02-07T16:27:14.459Z,84
2018-02-07T16:28:29.505Z,76
2018-02-07T16:29:44.774Z,68
2018-02-07T16:30:59.490Z,60
2018-02-07T16:32:14.680Z,52
2018-02-07T16:33:29.699Z,44
2018-02-07T16:34:44.377Z,40
2018-02-07T16:35:59.908Z,32
2018-02-07T16:37:14.782Z,28
2018-02-07T16:38:30.023Z,24
2018-02-07T16:39:44.497Z,20
2018-02-07T16:40:59.890Z,16
2018-02-07T16:42:15.208Z,16
2018-02-07T16:43:30.835Z,12
2018-02-07T16:45:11.648Z,8
2018-02-07T16:46:26.538Z,4
2018-02-07T16:47:41.504Z,4
2018-02-07T16:48:56.206Z,4
2018-02-07T16:50:11.298Z,4
2018-02-07T16:51:26.715Z,4
2018-02-07T16:52:41.080Z,4
2018-02-07T16:53:55.810Z,0
2018-02-07T16:55:11.045Z,4
2018-02-07T16:56:26.111Z,0
2018-02-07T16:57:41.592Z,0
2018-02-07T16:58:56.516Z,0
2018-02-07T17:00:11.533Z,0
2018-02-07T17:01:26.844Z,0
2018-02-07T17:02:42.136Z,0
2018-02-07T17:03:56.891Z,0
2018-02-07T17:05:12.142Z,0
2018-02-07T17:06:27.529Z,0
2018-02-07T17:07:42.281Z,0
2018-02-07T17:08:56.420Z,0
2018-02-07T17:10:11.674Z,0
2018-02-07T17:11:26.300Z,0
2018-02-07T17:12:41.251Z,0
2018-02-07T17:13:56.680Z,0
2018-02-07T17:15:23.113Z,0
2018-02-07T17:16:37.706Z,0
2018-02-07T17:17:51.896Z,0
2018-02-07T17:19:06.654Z,0
2018-02-07T17:20:21.679Z,0
2018-02-07T17:21:37.165Z,0
2018-02-07T17:22:51.978Z,0
2018-02-07T17:24:07.556Z,0
2018-02-07T17:25:22.599Z,0
2018-02-07T17:26:37.522Z,0
2018-02-07T17:27:52.249Z,0
2018-02-07T17:29:07.204Z,0
2018-02-07T17:30:22.966Z,0
2018-02-07T17:31:38.144Z,0
2018-02-07T17:33:26.487Z,0
2018-02-07T17:34:41.519Z,0
2018-02-07T17:38:59.523Z,0
2018-02-07T17:40:14.286Z,0